Accueil
METAR-TAF:

METAR-TAF

Aéroports :

Aéroport de Guernesey

Guernesey,

latitude: 49-26N, longitude: 002-36W, altitude: 102 m

Observation

Le bulletin a été fait il y a 17 minutes, à 19:50 UTC
Vent 7 kt de sud/sud-ouest
Température 15°C
Humidité 88%
Pression 1016 hPa
Visibilité 10 km ou plus
pas de nuages en-dessous de 1500 mètres et pas de cumulonimbus.

METAR: EGJB 041950Z 21007KT CAVOK 15/13 Q1016

Heure: 21:07 (20:07 UTC)

Prévision

Le bulletin a été fait il y a 3 heures et 8 minutes, à 16:59 UTC
Prévision valable du 04 à 18 UTC au 05 à 03 UTC
Vent 7 kt de sud-ouest
Visibilité 10 km ou plus
pas de nuages en-dessous de 1500 mètres et pas de cumulonimbus.
Probabilité 30% :
Temporairement
du 05 à 01 UTC au 05 à 03 UTC
Nuages fragmentés à une hauteur de 1500 ft

TAF: EGJB 041659Z 0418/0503 22007KT CAVOK PROB30 TEMPO 0501/0503 BKN015

Observations et prévisions météorologiques de plus de 4000 aéroports (messages METAR et TAF).

Les stations disponibles sont représentées par des disques jaunes et rouges sur la carte.

Passer la souris dessus pour voir le nom de la station.

Cliquer dessus pour voir les observations et prévisions météorologiques.

Pour changer de carte: cliquez sur les boutons verts avec une croix noire pour zoomer, sur le bouton vert avec un tiret pour effectuer un zoom arrière, ou sur les flèches vertes pour les cartes adjacentes.


METAR-TAF: